createdAt,value
2019-04-30T00:01:40.179Z,11.85
2019-04-30T00:04:15.642Z,11.86
2019-04-30T00:06:42.393Z,11.79
2019-04-30T00:09:15.113Z,11.77
2019-04-30T00:11:40.148Z,11.75
2019-04-30T00:14:09.064Z,11.75
2019-04-30T00:16:39.892Z,11.75
2019-04-30T00:19:10.639Z,11.73
2019-04-30T00:21:36.552Z,11.65
2019-04-30T00:24:10.021Z,11.66
2019-04-30T00:26:35.406Z,11.71
2019-04-30T00:29:05.015Z,11.70
2019-04-30T00:31:34.835Z,11.68
2019-04-30T00:34:01.827Z,11.67
2019-04-30T00:36:34.142Z,11.63
2019-04-30T00:39:00.121Z,11.62
2019-04-30T00:41:30.279Z,11.63
2019-04-30T00:43:58.373Z,11.63
2019-04-30T00:46:29.326Z,11.63
2019-04-30T00:49:08.545Z,11.63
2019-04-30T00:51:26.233Z,11.58
2019-04-30T00:53:55.647Z,11.56
2019-04-30T00:56:24.611Z,11.57
2019-04-30T00:58:51.490Z,11.58
2019-04-30T01:01:28.602Z,11.61
2019-04-30T01:04:01.951Z,11.59
2019-04-30T01:06:30.781Z,11.63
2019-04-30T01:09:05.411Z,11.64
2019-04-30T01:11:29.504Z,11.66
2019-04-30T01:13:59.110Z,11.65
2019-04-30T01:16:30.172Z,11.67
2019-04-30T01:18:58.634Z,11.67
2019-04-30T01:21:25.902Z,11.63
2019-04-30T01:23:54.902Z,11.62
2019-04-30T01:26:27.701Z,11.63
2019-04-30T01:28:53.723Z,11.65
2019-04-30T01:31:21.607Z,11.67
2019-04-30T01:33:50.458Z,11.63
2019-04-30T01:36:19.367Z,11.62
2019-04-30T01:38:49.070Z,11.63
2019-04-30T01:41:22.041Z,11.66
2019-04-30T01:43:48.910Z,11.62
2019-04-30T01:46:18.974Z,11.59
2019-04-30T01:48:51.865Z,11.57
2019-04-30T01:51:21.541Z,11.55
2019-04-30T01:53:48.491Z,11.50
2019-04-30T01:57:24.622Z,11.50
2019-04-30T02:00:00.667Z,11.42
2019-04-30T02:02:28.665Z,11.33
2019-04-30T02:04:59.050Z,11.28
2019-04-30T02:07:28.772Z,11.27
2019-04-30T02:09:55.966Z,11.23
2019-04-30T02:12:25.963Z,11.23
2019-04-30T02:14:55.406Z,11.21
2019-04-30T02:17:24.453Z,11.18
2019-04-30T02:19:56.688Z,11.19
2019-04-30T02:22:22.123Z,11.18
2019-04-30T02:24:50.920Z,11.15
2019-04-30T02:27:21.637Z,11.04
2019-04-30T02:29:49.509Z,11.00
2019-04-30T02:32:20.542Z,11.01
2019-04-30T02:34:50.712Z,11.03
2019-04-30T02:37:22.456Z,11.08
2019-04-30T02:39:51.306Z,11.08
2019-04-30T02:42:20.423Z,11.08
2019-04-30T02:44:50.442Z,11.13
2019-04-30T02:47:20.304Z,11.18
2019-04-30T02:49:52.936Z,11.15
2019-04-30T02:52:19.417Z,11.11
2019-04-30T02:54:45.772Z,11.11
2019-04-30T02:57:14.712Z,11.06
2019-04-30T02:59:49.723Z,11.08
2019-04-30T03:02:19.555Z,11.04
2019-04-30T03:04:46.664Z,10.98
2019-04-30T03:07:15.483Z,10.97
2019-04-30T03:09:44.322Z,10.94
2019-04-30T03:12:13.168Z,10.93
2019-04-30T03:14:42.409Z,10.99
2019-04-30T03:17:22.425Z,11.06
2019-04-30T03:20:00.270Z,11.09
2019-04-30T03:22:30.154Z,11.12
2019-04-30T03:24:59.802Z,11.13
2019-04-30T03:27:30.145Z,11.16
2019-04-30T03:30:00.099Z,11.17
2019-04-30T03:32:35.731Z,11.11
2019-04-30T03:34:55.915Z,11.08
2019-04-30T03:37:24.752Z,11.06
2019-04-30T03:39:53.819Z,11.07
2019-04-30T03:42:24.416Z,11.04
2019-04-30T03:44:53.916Z,10.96
2019-04-30T03:47:22.751Z,10.96
2019-04-30T03:49:52.140Z,10.95
2019-04-30T03:52:21.061Z,10.85
2019-04-30T03:54:50.493Z,10.86
2019-04-30T03:57:20.367Z,10.80
2019-04-30T03:59:49.939Z,10.77
2019-04-30T04:02:21.215Z,10.75
2019-04-30T04:04:53.967Z,10.75
2019-04-30T04:07:31.019Z,10.73
2019-04-30T04:10:06.027Z,10.75
2019-04-30T04:12:35.532Z,10.79
2019-04-30T04:15:04.561Z,10.81
2019-04-30T04:17:33.702Z,10.83
2019-04-30T04:20:03.372Z,10.82
2019-04-30T04:22:32.929Z,10.82
2019-04-30T04:25:01.816Z,10.87
2019-04-30T04:27:31.681Z,10.91
2019-04-30T04:30:01.300Z,10.87
2019-04-30T04:32:30.781Z,10.80
2019-04-30T04:35:00.179Z,10.84
2019-04-30T04:37:30.291Z,10.91
2019-04-30T04:39:59.603Z,10.93
2019-04-30T04:42:32.403Z,10.94
2019-04-30T04:44:55.736Z,10.95
2019-04-30T04:47:24.554Z,10.94
2019-04-30T04:49:53.903Z,10.94
2019-04-30T04:52:22.434Z,10.95
2019-04-30T04:54:51.195Z,10.94
2019-04-30T04:57:22.579Z,10.87
2019-04-30T04:59:50.225Z,10.86
2019-04-30T05:02:24.154Z,10.90
2019-04-30T05:04:52.956Z,10.87
2019-04-30T05:07:22.467Z,10.90
2019-04-30T05:09:51.359Z,10.90
2019-04-30T05:12:20.379Z,10.90
2019-04-30T05:14:49.830Z,10.93
2019-04-30T05:17:19.519Z,10.97
2019-04-30T05:19:48.732Z,11.04
2019-04-30T05:22:19.060Z,11.06
2019-04-30T05:24:46.398Z,10.98
2019-04-30T05:27:15.224Z,11.02
2019-04-30T05:29:45.100Z,10.99
2019-04-30T05:32:13.902Z,11.00
2019-04-30T05:34:42.766Z,11.02
2019-04-30T05:37:12.574Z,11.05
2019-04-30T05:39:41.440Z,11.03
2019-04-30T05:42:10.279Z,11.08
2019-04-30T05:44:39.567Z,11.18
2019-04-30T05:47:09.310Z,11.23
2019-04-30T05:49:38.798Z,11.29
2019-04-30T05:52:06.844Z,11.32
2019-04-30T05:54:35.688Z,11.43
2019-04-30T05:57:04.499Z,11.53
2019-04-30T05:59:33.436Z,11.64
2019-04-30T06:02:02.254Z,11.59
2019-04-30T06:04:31.078Z,11.58
2019-04-30T06:06:59.900Z,11.62
2019-04-30T06:09:35.803Z,11.63
2019-04-30T06:13:13.580Z,11.63
2019-04-30T06:15:49.003Z,11.60
2019-04-30T06:18:18.599Z,11.57
2019-04-30T06:20:45.538Z,11.66
2019-04-30T06:23:14.454Z,11.70
2019-04-30T06:25:56.278Z,11.67
2019-04-30T06:28:12.415Z,11.68
2019-04-30T06:30:41.285Z,11.66
2019-04-30T06:33:11.779Z,11.76
2019-04-30T06:35:39.525Z,11.80
2019-04-30T06:38:08.654Z,11.79
2019-04-30T06:40:38.994Z,11.79
2019-04-30T06:43:05.950Z,11.79
2019-04-30T06:45:35.318Z,11.70
2019-04-30T06:48:04.788Z,11.73
2019-04-30T06:50:34.276Z,11.80
2019-04-30T06:53:03.104Z,11.86
2019-04-30T06:55:32.559Z,11.94
2019-04-30T06:58:11.826Z,12.01
2019-04-30T07:00:35.674Z,12.04
2019-04-30T07:03:04.371Z,12.03
2019-04-30T07:05:33.236Z,11.97
2019-04-30T07:08:11.416Z,12.03
2019-04-30T07:10:37.284Z,12.09
2019-04-30T07:13:13.447Z,12.15
2019-04-30T07:15:42.277Z,12.19
2019-04-30T07:18:11.134Z,12.23
2019-04-30T07:20:39.920Z,12.27
2019-04-30T07:23:09.383Z,12.25
2019-04-30T07:25:39.105Z,12.34
2019-04-30T07:28:08.805Z,12.36
2019-04-30T07:30:36.850Z,12.33
2019-04-30T07:33:05.742Z,12.40
2019-04-30T07:35:34.533Z,12.46
2019-04-30T07:38:04.989Z,12.46
2019-04-30T07:40:33.113Z,12.57
2019-04-30T07:43:02.016Z,12.56
2019-04-30T07:45:32.178Z,12.55
2019-04-30T07:48:00.451Z,12.63
2019-04-30T07:50:31.354Z,12.67
2019-04-30T07:53:05.485Z,12.73
2019-04-30T07:55:29.543Z,12.71
2019-04-30T07:57:56.687Z,12.66
2019-04-30T08:00:26.107Z,12.60
2019-04-30T08:03:03.326Z,12.66
2019-04-30T08:05:35.918Z,12.75
2019-04-30T08:08:20.641Z,12.80
2019-04-30T08:10:33.559Z,12.72
2019-04-30T08:13:10.281Z,12.70
2019-04-30T08:15:31.275Z,12.73
2019-04-30T08:18:04.446Z,12.70
2019-04-30T08:20:29.549Z,12.79
2019-04-30T08:23:07.048Z,12.75
2019-04-30T08:25:28.846Z,12.79
2019-04-30T08:27:55.509Z,12.83
2019-04-30T08:30:27.035Z,12.91
2019-04-30T08:32:53.229Z,12.95
2019-04-30T08:35:22.181Z,12.89
2019-04-30T08:37:52.302Z,12.89
2019-04-30T08:40:21.188Z,12.82
2019-04-30T08:42:50.077Z,12.76
2019-04-30T08:45:19.695Z,12.82
2019-04-30T08:47:49.324Z,12.90
2019-04-30T08:50:16.700Z,12.93
2019-04-30T08:52:46.114Z,12.97
2019-04-30T08:55:17.077Z,12.97
2019-04-30T08:57:43.815Z,12.98
2019-04-30T09:00:14.905Z,12.96
2019-04-30T09:02:43.214Z,13.03
2019-04-30T09:05:18.537Z,13.03
2019-04-30T09:07:46.004Z,13.16
2019-04-30T09:10:15.595Z,13.13
2019-04-30T09:12:44.419Z,13.21
2019-04-30T09:15:13.963Z,13.26
2019-04-30T09:17:42.792Z,13.39
2019-04-30T09:20:11.670Z,13.36
2019-04-30T09:22:41.785Z,13.32
2019-04-30T09:25:10.899Z,13.40
2019-04-30T09:27:39.973Z,13.43
2019-04-30T09:30:10.332Z,13.35
2019-04-30T09:32:38.988Z,13.28
2019-04-30T09:35:06.259Z,13.26
2019-04-30T09:37:36.194Z,13.12
2019-04-30T09:40:15.310Z,13.05
2019-04-30T09:42:36.123Z,13.17
2019-04-30T09:45:05.431Z,13.23
2019-04-30T09:47:35.361Z,13.32
2019-04-30T09:50:04.211Z,13.46
2019-04-30T09:52:35.521Z,13.54
2019-04-30T09:55:02.271Z,13.49
2019-04-30T09:57:30.717Z,13.42
2019-04-30T10:00:00.642Z,13.42
2019-04-30T10:02:29.188Z,13.47
2019-04-30T10:04:58.384Z,13.45
2019-04-30T10:07:29.283Z,13.46
2019-04-30T10:09:59.644Z,13.48
2019-04-30T10:12:29.543Z,13.56
2019-04-30T10:14:59.250Z,13.66
2019-04-30T10:17:32.878Z,13.79
2019-04-30T10:20:01.996Z,13.81
2019-04-30T10:22:32.110Z,13.92
2019-04-30T10:25:01.903Z,13.94
2019-04-30T10:27:30.792Z,13.96
2019-04-30T10:30:00.487Z,14.04
2019-04-30T10:32:30.045Z,14.10
2019-04-30T10:34:58.766Z,14.08
2019-04-30T10:37:28.767Z,13.98
2019-04-30T10:39:56.620Z,13.90
2019-04-30T10:42:28.738Z,13.93
2019-04-30T10:44:55.575Z,13.98
2019-04-30T10:47:25.475Z,13.94
2019-04-30T10:49:55.627Z,13.96
2019-04-30T10:52:24.424Z,14.08
2019-04-30T10:54:53.267Z,14.01
2019-04-30T10:57:22.639Z,14.08
2019-04-30T10:59:51.584Z,14.24
2019-04-30T11:02:20.352Z,14.43
2019-04-30T11:04:49.252Z,14.64
2019-04-30T11:07:18.640Z,14.69
2019-04-30T11:09:50.599Z,14.66
2019-04-30T11:12:19.539Z,14.67
2019-04-30T11:14:48.412Z,14.74
2019-04-30T11:17:19.530Z,14.71
2019-04-30T11:19:46.675Z,14.51
2019-04-30T11:22:15.476Z,14.44
2019-04-30T11:24:58.240Z,14.54
2019-04-30T11:27:13.518Z,14.58
2019-04-30T11:29:42.618Z,14.56
2019-04-30T11:32:17.120Z,14.57
2019-04-30T11:34:45.935Z,14.65
2019-04-30T11:37:14.808Z,14.62
2019-04-30T11:39:43.776Z,14.69
2019-04-30T11:42:13.287Z,14.66
2019-04-30T11:44:42.114Z,14.68
2019-04-30T11:47:22.079Z,14.72
2019-04-30T11:49:51.301Z,14.62
2019-04-30T11:52:20.463Z,14.48
2019-04-30T11:54:54.164Z,14.44
2019-04-30T11:57:18.862Z,14.45
2019-04-30T11:59:47.880Z,14.44
2019-04-30T12:02:21.182Z,14.47
2019-04-30T12:04:51.219Z,14.53
2019-04-30T12:07:41.363Z,14.56
2019-04-30T12:10:19.553Z,14.67
2019-04-30T12:12:54.934Z,14.94
2019-04-30T12:15:24.274Z,15.23
2019-04-30T12:17:53.072Z,15.34
2019-04-30T12:20:23.134Z,15.37
2019-04-30T12:22:52.568Z,15.39
2019-04-30T12:25:21.892Z,15.35
2019-04-30T12:27:51.058Z,15.27
2019-04-30T12:30:20.754Z,15.28
2019-04-30T12:32:55.580Z,15.49
2019-04-30T12:35:29.061Z,15.78
2019-04-30T12:37:59.268Z,16.01
2019-04-30T12:40:31.733Z,16.10
2019-04-30T12:42:59.885Z,16.12
2019-04-30T12:45:29.416Z,16.33
2019-04-30T12:47:59.551Z,16.56
2019-04-30T12:50:32.576Z,16.66
2019-04-30T12:53:04.996Z,16.87
2019-04-30T12:55:39.191Z,16.94
2019-04-30T12:58:07.030Z,17.30
2019-04-30T13:00:41.091Z,17.20
2019-04-30T13:03:17.618Z,17.03
2019-04-30T13:05:48.167Z,16.80
2019-04-30T13:08:17.424Z,16.85
2019-04-30T13:10:46.237Z,16.87
2019-04-30T13:13:14.915Z,16.88
2019-04-30T13:15:43.545Z,16.92
2019-04-30T13:18:12.378Z,16.88
2019-04-30T13:20:42.225Z,16.80
2019-04-30T13:23:11.041Z,16.90
2019-04-30T13:25:50.720Z,17.03
2019-04-30T13:28:12.804Z,16.97
2019-04-30T13:30:52.678Z,17.15
2019-04-30T13:33:38.925Z,17.24
2019-04-30T13:36:08.777Z,17.17
2019-04-30T13:38:49.131Z,17.24
2019-04-30T13:41:15.022Z,17.39
2019-04-30T13:43:51.656Z,17.49
2019-04-30T13:46:20.511Z,17.44
2019-04-30T13:48:49.306Z,17.54
2019-04-30T13:51:18.894Z,17.66
2019-04-30T13:53:50.128Z,17.58
2019-04-30T13:56:20.296Z,17.55
2019-04-30T13:58:48.012Z,17.55
2019-04-30T14:01:18.871Z,17.58
2019-04-30T14:03:52.504Z,17.54
2019-04-30T14:06:23.434Z,17.53
2019-04-30T14:09:07.662Z,17.51
2019-04-30T14:12:06.187Z,17.32
2019-04-30T14:14:35.031Z,17.04
2019-04-30T14:17:03.837Z,17.12
2019-04-30T14:19:32.648Z,17.20
2019-04-30T14:22:02.087Z,17.40
2019-04-30T14:24:30.895Z,17.38
2019-04-30T14:26:59.779Z,17.41
2019-04-30T14:29:30.175Z,17.41
2019-04-30T14:31:58.875Z,17.59
2019-04-30T14:34:28.599Z,17.47
2019-04-30T14:36:59.363Z,17.24
2019-04-30T14:39:29.149Z,17.18
2019-04-30T14:41:59.997Z,17.38
2019-04-30T14:44:31.182Z,17.05
2019-04-30T14:47:17.358Z,16.85
2019-04-30T14:50:01.999Z,16.97
2019-04-30T14:52:24.414Z,17.15
2019-04-30T14:54:58.843Z,17.21
2019-04-30T14:57:33.451Z,17.27
2019-04-30T15:00:08.737Z,17.24
2019-04-30T15:02:40.790Z,17.30
2019-04-30T15:05:09.625Z,17.14
2019-04-30T15:07:39.690Z,16.97
2019-04-30T15:10:07.924Z,16.59
2019-04-30T15:12:38.194Z,16.71
2019-04-30T15:15:09.165Z,16.87
2019-04-30T15:17:40.922Z,16.88
2019-04-30T15:20:08.669Z,16.88
2019-04-30T15:22:36.638Z,16.90
2019-04-30T15:25:06.907Z,16.82
2019-04-30T15:27:45.303Z,16.99
2019-04-30T15:30:07.996Z,17.11
2019-04-30T15:32:39.569Z,16.83
2019-04-30T15:35:08.866Z,16.50
2019-04-30T15:37:38.595Z,16.26
2019-04-30T15:40:09.098Z,16.31
2019-04-30T15:42:39.012Z,16.42
2019-04-30T15:45:09.286Z,16.38
2019-04-30T15:47:38.700Z,16.32
2019-04-30T15:50:09.777Z,16.01
2019-04-30T15:52:38.664Z,15.88
2019-04-30T15:55:05.807Z,15.84
2019-04-30T15:57:51.415Z,15.77
2019-04-30T16:00:21.210Z,15.75
2019-04-30T16:02:57.324Z,15.87
2019-04-30T16:05:27.645Z,15.98
2019-04-30T16:08:01.627Z,15.90
2019-04-30T16:10:34.737Z,15.95
2019-04-30T16:13:09.690Z,16.10
2019-04-30T16:15:38.564Z,16.22
2019-04-30T16:18:09.630Z,16.39
2019-04-30T16:20:36.599Z,16.51
2019-04-30T16:23:09.059Z,16.46
2019-04-30T16:25:36.640Z,16.28
2019-04-30T16:28:05.664Z,16.05
2019-04-30T16:30:34.459Z,15.91
2019-04-30T16:33:03.945Z,15.84
2019-04-30T16:35:32.831Z,15.75
2019-04-30T16:38:01.642Z,15.69
2019-04-30T16:40:34.769Z,15.61
2019-04-30T16:43:05.795Z,15.54
2019-04-30T16:45:35.483Z,15.52
2019-04-30T16:48:04.288Z,15.51
2019-04-30T16:50:33.135Z,15.43
2019-04-30T16:56:08.484Z,15.15
2019-04-30T16:58:40.737Z,14.94
2019-04-30T17:01:09.607Z,14.90
2019-04-30T17:03:40.431Z,14.81
2019-04-30T17:06:13.378Z,14.82
2019-04-30T17:08:45.953Z,14.76
2019-04-30T17:11:19.942Z,14.60
2019-04-30T17:13:54.148Z,14.56
2019-04-30T17:16:24.400Z,14.51
2019-04-30T17:18:53.272Z,14.51
2019-04-30T17:21:22.534Z,14.51
2019-04-30T17:23:52.495Z,14.50
2019-04-30T17:26:22.351Z,14.44
2019-04-30T17:28:51.130Z,14.42
2019-04-30T17:31:19.972Z,14.37
2019-04-30T17:33:49.418Z,14.34
2019-04-30T17:36:18.797Z,14.29
2019-04-30T17:38:47.404Z,14.23
2019-04-30T17:41:17.827Z,14.18
2019-04-30T17:43:49.794Z,14.05
2019-04-30T17:46:20.191Z,13.90
2019-04-30T17:48:49.428Z,13.89
2019-04-30T17:51:16.273Z,13.80
2019-04-30T17:53:50.497Z,13.75
2019-04-30T17:56:20.400Z,13.72
2019-04-30T17:58:49.274Z,13.66
2019-04-30T18:01:18.709Z,13.63
2019-04-30T18:03:48.805Z,13.54
2019-04-30T18:06:16.443Z,13.47
2019-04-30T18:08:45.246Z,13.43
2019-04-30T18:11:14.150Z,13.33
2019-04-30T18:13:43.586Z,13.28
2019-04-30T18:16:12.473Z,13.23
2019-04-30T18:18:45.533Z,13.16
2019-04-30T18:21:25.817Z,13.04
2019-04-30T18:24:01.907Z,13.00
2019-04-30T18:26:30.733Z,12.91
2019-04-30T18:29:00.718Z,12.86
2019-04-30T18:31:29.922Z,12.83
2019-04-30T18:33:59.311Z,12.76
2019-04-30T18:36:29.403Z,12.66
2019-04-30T18:38:58.936Z,12.57
2019-04-30T18:41:25.862Z,12.49
2019-04-30T18:43:54.697Z,12.40
2019-04-30T18:46:23.555Z,12.39
2019-04-30T18:48:52.832Z,12.31
2019-04-30T18:51:33.739Z,12.24
2019-04-30T18:53:50.255Z,12.16
2019-04-30T18:56:19.223Z,12.10
2019-04-30T18:58:48.639Z,11.99
2019-04-30T19:01:16.912Z,11.93
2019-04-30T19:03:45.737Z,11.89
2019-04-30T19:06:23.737Z,11.82
2019-04-30T19:08:50.460Z,11.76
2019-04-30T19:11:26.395Z,11.69
2019-04-30T19:14:02.423Z,11.62
2019-04-30T19:16:44.324Z,11.57
2019-04-30T19:19:17.323Z,11.49
2019-04-30T19:21:46.446Z,11.42
2019-04-30T19:24:15.364Z,11.37
2019-04-30T19:26:44.180Z,11.35
2019-04-30T19:29:12.976Z,11.28
2019-04-30T19:31:41.781Z,11.22
2019-04-30T19:34:10.592Z,11.15
2019-04-30T19:36:40.736Z,11.08
2019-04-30T19:39:08.736Z,11.03
2019-04-30T19:41:38.655Z,10.97
2019-04-30T19:44:06.380Z,10.92
2019-04-30T19:46:35.201Z,10.87
2019-04-30T19:49:04.055Z,10.83
2019-04-30T19:51:32.892Z,10.80
2019-04-30T19:54:02.062Z,10.75
2019-04-30T19:56:32.864Z,10.71
2019-04-30T19:59:04.797Z,10.66
2019-04-30T20:01:28.813Z,10.61
2019-04-30T20:03:58.762Z,10.54
2019-04-30T20:06:28.608Z,10.50
2019-04-30T20:08:55.436Z,10.47
2019-04-30T20:11:24.304Z,10.41
2019-04-30T20:13:53.143Z,10.37
2019-04-30T20:16:21.971Z,10.34
2019-04-30T20:18:50.848Z,10.30
2019-04-30T20:21:28.389Z,10.27
2019-04-30T20:23:48.447Z,10.23
2019-04-30T20:26:17.278Z,10.17
2019-04-30T20:28:46.265Z,10.14
2019-04-30T20:31:15.145Z,10.11
2019-04-30T20:33:44.752Z,10.10
2019-04-30T20:36:14.207Z,10.06
2019-04-30T20:38:47.199Z,10.03
2019-04-30T20:41:15.999Z,9.99
2019-04-30T20:43:44.911Z,9.96
2019-04-30T20:46:13.740Z,9.93
2019-04-30T20:48:42.595Z,9.92
2019-04-30T20:51:11.399Z,9.88
2019-04-30T20:53:41.013Z,9.85
2019-04-30T20:56:09.273Z,9.82
2019-04-30T20:58:40.482Z,9.79
2019-04-30T21:01:06.984Z,9.77
2019-04-30T21:03:35.567Z,9.74
2019-04-30T21:06:04.375Z,9.72
2019-04-30T21:08:33.167Z,9.71
2019-04-30T21:11:01.980Z,9.69
2019-04-30T21:13:30.768Z,9.66
2019-04-30T21:15:59.669Z,9.64
2019-04-30T21:18:32.106Z,9.63
2019-04-30T21:20:59.504Z,9.57
2019-04-30T21:23:26.283Z,9.52
2019-04-30T21:25:55.182Z,9.48
2019-04-30T21:28:23.957Z,9.44
2019-04-30T21:30:52.844Z,9.41
2019-04-30T21:33:25.609Z,9.40
2019-04-30T21:35:59.927Z,9.40
2019-04-30T21:38:29.343Z,9.37
2019-04-30T21:41:01.262Z,9.36
2019-04-30T21:43:29.274Z,9.35
2019-04-30T21:45:59.410Z,9.31
2019-04-30T21:48:28.778Z,9.29
2019-04-30T21:50:55.840Z,9.28
2019-04-30T21:53:25.632Z,9.24
2019-04-30T21:55:54.531Z,9.24
2019-04-30T21:58:23.359Z,9.22
2019-04-30T22:00:58.043Z,9.19
2019-04-30T22:03:26.844Z,9.17
2019-04-30T22:05:57.632Z,9.15
2019-04-30T22:08:26.494Z,9.13
2019-04-30T22:10:55.288Z,9.11
2019-04-30T22:13:24.074Z,9.08
2019-04-30T22:15:52.878Z,9.05
2019-04-30T22:18:21.731Z,9.03
2019-04-30T22:20:50.585Z,9.02
2019-04-30T22:23:19.458Z,8.99
2019-04-30T22:25:49.095Z,8.97
2019-04-30T22:28:17.101Z,8.93
2019-04-30T22:30:46.024Z,8.91
2019-04-30T22:33:14.827Z,8.88
2019-04-30T22:35:51.147Z,8.86
2019-04-30T22:38:22.053Z,8.83
2019-04-30T22:40:50.893Z,8.80
2019-04-30T22:43:19.641Z,8.77
2019-04-30T22:45:52.052Z,8.75
2019-04-30T22:48:20.869Z,8.73
2019-04-30T22:50:49.777Z,8.72
2019-04-30T22:53:18.623Z,8.69
2019-04-30T22:55:47.562Z,8.66
2019-04-30T22:58:16.343Z,8.63
2019-04-30T23:00:45.274Z,8.61
2019-04-30T23:03:18.964Z,8.58
2019-04-30T23:05:47.754Z,8.55
2019-04-30T23:08:16.556Z,8.53
2019-04-30T23:10:45.414Z,8.51
2019-04-30T23:13:14.286Z,8.48
2019-04-30T23:15:43.085Z,8.45
2019-04-30T23:18:11.890Z,8.44
2019-04-30T23:20:40.720Z,8.42
2019-04-30T23:23:09.550Z,8.37
2019-04-30T23:25:38.335Z,8.38
2019-04-30T23:28:07.134Z,8.34
2019-04-30T23:30:35.936Z,8.30
2019-04-30T23:33:04.740Z,8.27
2019-04-30T23:35:33.517Z,8.25
2019-04-30T23:38:02.317Z,8.23
2019-04-30T23:40:36.106Z,8.36
2019-04-30T23:43:04.896Z,8.25
2019-04-30T23:45:33.763Z,8.20
2019-04-30T23:48:02.618Z,8.18
2019-04-30T23:50:31.409Z,8.15
2019-04-30T23:53:00.220Z,8.14
2019-04-30T23:55:29.052Z,8.09
2019-04-30T23:57:58.564Z,8.07
